logo
Rechercher aéroport 
image banner adimage banner adimage banner ad
image banner ad

YCLOV - Cloverdale

Situé à Victoria Valley, Australia

ICAO - , IATA -

Données fournies par Airmate  

Information générale

Coordonnées: S42°17'40" E146°39'52"
Élévation : 2145 feet MSL.
Variation magnétique : 15° East
Voir autres Aéroports à Tasmania

Données opérationnelles

Special qualification required
Heure actuelle UTC:
Heure actuelle locale:
Météo à : - ( 0 km )
METAR: RCTP 220827Z 01007KT 330V040 9999 -RA FEW006 BKN009 BKN014 24/23 Q1009 NOSIG RMK A2982
Voir NOTAMs / SUP AIP / TFR affectant cet aéroport [VIEW]
Fréquences de communication: [VIEW]

Pistes:

Identifiant RWYQFULongueur (ft)Largeur (ft)SurfaceLDA (ft)
10119°1889142GRAS
28299°1889142GRAS

Coordonnées de l'aéroport

Adresse: Victoria Valley Australia

Vue satellite de YCLOV